Union Chapel, Texas
Current Conditions -  °F | °C
As of 7:53 AM on Monday 24 Nov 2014 (Local Time) from KTXK Reporting Station
Clear Clear  
Wind Chill: 41°   Ceiling: Unl
Heat Index: 46°   Visibility: 10mi
Dew Point: 37°   Wind: 9mph
Humidity: 71%   Direction: 280°W
Pressure: 29.94"   Gusts: NA
Location:  33.1865°N, 94.3585°W
Report Text: KTXK 241353Z 28008KT 10SM CLR 08/03 A2994 RMK AO2 SLP135 T00780028
Loading
Personal Weather Stations






























Interactive Weather Map New forecast layout! Learn more

10-Day Weather Forecast

Advertisements
Track Severe Weather on mobile